sensor_id;sensor_type;location;lat;lon;timestamp;pressure;altitude;pressure_sealevel;temperature;humidity
59272;BME280;45043;51.068;7.026;2024-02-23T00:01:40;97861.47;;;6.95;57.26
59272;BME280;45043;51.068;7.026;2024-02-23T00:04:41;97876.00;;;6.91;57.34
59272;BME280;45043;51.068;7.026;2024-02-23T00:07:42;97885.06;;;6.95;57.44
59272;BME280;45043;51.068;7.026;2024-02-23T00:10:42;97919.97;;;6.96;57.62
59272;BME280;45043;51.068;7.026;2024-02-23T00:13:43;97874.81;;;6.94;57.62
59272;BME280;45043;51.068;7.026;2024-02-23T00:16:44;97899.63;;;6.91;57.40
59272;BME280;45043;51.068;7.026;2024-02-23T00:19:46;97890.31;;;6.95;57.73
59272;BME280;45043;51.068;7.026;2024-02-23T00:22:47;97913.91;;;6.95;57.41
59272;BME280;45043;51.068;7.026;2024-02-23T00:25:48;97948.22;;;6.94;57.23
59272;BME280;45043;51.068;7.026;2024-02-23T00:28:48;97937.16;;;6.85;57.94
59272;BME280;45043;51.068;7.026;2024-02-23T00:31:49;97936.75;;;6.82;58.15
59272;BME280;45043;51.068;7.026;2024-02-23T00:34:50;97913.38;;;6.80;58.26
59272;BME280;45043;51.068;7.026;2024-02-23T00:37:50;97917.84;;;6.80;58.46
59272;BME280;45043;51.068;7.026;2024-02-23T00:40:51;97931.13;;;6.78;58.22
59272;BME280;45043;51.068;7.026;2024-02-23T00:43:51;97950.66;;;6.82;58.66
59272;BME280;45043;51.068;7.026;2024-02-23T00:46:52;97952.94;;;6.72;58.25
59272;BME280;45043;51.068;7.026;2024-02-23T00:49:53;97978.56;;;6.70;58.81
59272;BME280;45043;51.068;7.026;2024-02-23T00:52:53;97957.22;;;6.60;58.74
59272;BME280;45043;51.068;7.026;2024-02-23T00:55:54;97980.84;;;6.53;59.32
59272;BME280;45043;51.068;7.026;2024-02-23T00:58:54;97963.69;;;6.50;59.30
59272;BME280;45043;51.068;7.026;2024-02-23T01:01:56;97977.81;;;6.49;59.46
59272;BME280;45043;51.068;7.026;2024-02-23T01:04:57;97991.31;;;6.46;58.99
59272;BME280;45043;51.068;7.026;2024-02-23T01:07:59;97986.28;;;6.45;59.30
59272;BME280;45043;51.068;7.026;2024-02-23T01:10:59;98000.78;;;6.47;59.21
59272;BME280;45043;51.068;7.026;2024-02-23T01:14:00;98007.63;;;6.48;59.18
59272;BME280;45043;51.068;7.026;2024-02-23T01:17:01;98003.63;;;6.46;59.39
59272;BME280;45043;51.068;7.026;2024-02-23T01:20:02;98025.78;;;6.43;59.37
59272;BME280;45043;51.068;7.026;2024-02-23T01:23:03;98030.63;;;6.33;59.49
59272;BME280;45043;51.068;7.026;2024-02-23T01:26:04;98015.75;;;6.27;59.35
59272;BME280;45043;51.068;7.026;2024-02-23T01:29:05;98048.38;;;6.24;59.62
59272;BME280;45043;51.068;7.026;2024-02-23T01:32:06;98029.44;;;6.22;59.40
59272;BME280;45043;51.068;7.026;2024-02-23T01:35:07;98026.41;;;6.25;58.93
59272;BME280;45043;51.068;7.026;2024-02-23T01:38:09;98038.31;;;6.28;59.16
59272;BME280;45043;51.068;7.026;2024-02-23T01:41:09;98050.78;;;6.26;58.64
59272;BME280;45043;51.068;7.026;2024-02-23T01:44:13;98041.53;;;6.23;59.12
59272;BME280;45043;51.068;7.026;2024-02-23T01:47:15;98048.78;;;6.21;58.80
59272;BME280;45043;51.068;7.026;2024-02-23T01:50:16;98052.41;;;6.14;59.04
59272;BME280;45043;51.068;7.026;2024-02-23T01:53:18;98060.47;;;6.12;59.15
59272;BME280;45043;51.068;7.026;2024-02-23T01:56:20;98059.47;;;6.07;59.57
59272;BME280;45043;51.068;7.026;2024-02-23T01:59:22;98079.81;;;6.05;59.55
59272;BME280;45043;51.068;7.026;2024-02-23T02:02:23;98074.16;;;6.01;59.37
59272;BME280;45043;51.068;7.026;2024-02-23T02:05:24;98076.56;;;6.02;59.52
59272;BME280;45043;51.068;7.026;2024-02-23T02:08:28;98058.63;;;5.93;60.36
59272;BME280;45043;51.068;7.026;2024-02-23T02:11:29;98077.38;;;5.90;60.35
59272;BME280;45043;51.068;7.026;2024-02-23T02:14:30;98074.75;;;5.83;60.30
59272;BME280;45043;51.068;7.026;2024-02-23T02:17:32;98073.31;;;5.81;60.67
59272;BME280;45043;51.068;7.026;2024-02-23T02:20:33;98071.50;;;5.81;60.50
59272;BME280;45043;51.068;7.026;2024-02-23T02:23:34;98070.31;;;5.84;60.10
59272;BME280;45043;51.068;7.026;2024-02-23T02:26:37;98084.38;;;5.76;60.21
59272;BME280;45043;51.068;7.026;2024-02-23T02:29:38;98077.53;;;5.68;60.54
59272;BME280;45043;51.068;7.026;2024-02-23T02:32:40;98073.69;;;5.71;60.68
59272;BME280;45043;51.068;7.026;2024-02-23T02:35:41;98081.97;;;5.68;60.45
59272;BME280;45043;51.068;7.026;2024-02-23T02:38:42;98091.03;;;5.72;60.10
59272;BME280;45043;51.068;7.026;2024-02-23T02:41:42;98086.56;;;5.66;60.38
59272;BME280;45043;51.068;7.026;2024-02-23T02:44:44;98100.88;;;5.70;60.34
59272;BME280;45043;51.068;7.026;2024-02-23T02:47:44;98105.69;;;5.66;60.29
59272;BME280;45043;51.068;7.026;2024-02-23T02:50:45;98108.72;;;5.70;59.76
59272;BME280;45043;51.068;7.026;2024-02-23T02:53:46;98102.06;;;5.67;59.80
59272;BME280;45043;51.068;7.026;2024-02-23T02:56:47;98102.66;;;5.63;60.10
59272;BME280;45043;51.068;7.026;2024-02-23T02:59:47;98111.53;;;5.62;60.03
59272;BME280;45043;51.068;7.026;2024-02-23T03:02:50;98118.75;;;5.60;59.63
59272;BME280;45043;51.068;7.026;2024-02-23T03:05:51;98114.53;;;5.59;59.99
59272;BME280;45043;51.068;7.026;2024-02-23T03:08:52;98118.16;;;5.58;60.16
59272;BME280;45043;51.068;7.026;2024-02-23T03:11:52;98113.53;;;5.60;59.48
59272;BME280;45043;51.068;7.026;2024-02-23T03:14:53;98113.34;;;5.61;59.83
59272;BME280;45043;51.068;7.026;2024-02-23T03:17:55;98114.34;;;5.67;59.31
59272;BME280;45043;51.068;7.026;2024-02-23T03:20:56;98116.97;;;5.67;59.49
59272;BME280;45043;51.068;7.026;2024-02-23T03:23:57;98124.81;;;5.67;59.62
59272;BME280;45043;51.068;7.026;2024-02-23T03:26:57;98128.44;;;5.66;59.30
59272;BME280;45043;51.068;7.026;2024-02-23T03:29:58;98119.00;;;5.65;58.83
59272;BME280;45043;51.068;7.026;2024-02-23T03:32:58;98120.59;;;5.66;58.41
59272;BME280;45043;51.068;7.026;2024-02-23T03:36:00;98136.09;;;5.67;58.69
59272;BME280;45043;51.068;7.026;2024-02-23T03:39:01;98125.66;;;5.74;58.27
59272;BME280;45043;51.068;7.026;2024-02-23T03:42:03;98133.31;;;5.75;58.06
59272;BME280;45043;51.068;7.026;2024-02-23T03:45:05;98133.13;;;5.77;58.12
59272;BME280;45043;51.068;7.026;2024-02-23T03:48:06;98139.56;;;5.81;58.09
59272;BME280;45043;51.068;7.026;2024-02-23T03:51:08;98140.78;;;5.85;57.87
59272;BME280;45043;51.068;7.026;2024-02-23T03:54:10;98134.34;;;5.81;57.50
59272;BME280;45043;51.068;7.026;2024-02-23T03:57:11;98144.41;;;5.84;57.66
59272;BME280;45043;51.068;7.026;2024-02-23T04:00:12;98148.88;;;5.90;57.38
59272;BME280;45043;51.068;7.026;2024-02-23T04:03:15;98150.69;;;5.90;57.04
59272;BME280;45043;51.068;7.026;2024-02-23T04:06:16;98154.09;;;5.90;56.90
59272;BME280;45043;51.068;7.026;2024-02-23T04:09:17;98149.84;;;5.89;57.44
59272;BME280;45043;51.068;7.026;2024-02-23T04:12:18;98149.50;;;5.99;56.71
59272;BME280;45043;51.068;7.026;2024-02-23T04:15:20;98140.22;;;5.96;57.00
59272;BME280;45043;51.068;7.026;2024-02-23T04:18:21;98148.06;;;5.96;56.44
59272;BME280;45043;51.068;7.026;2024-02-23T04:21:24;98151.50;;;5.90;56.65
59272;BME280;45043;51.068;7.026;2024-02-23T04:24:24;98161.97;;;5.90;56.97
59272;BME280;45043;51.068;7.026;2024-02-23T04:27:25;98158.72;;;5.88;56.60
59272;BME280;45043;51.068;7.026;2024-02-23T04:30:25;98159.34;;;5.97;57.00
59272;BME280;45043;51.068;7.026;2024-02-23T04:33:26;98155.34;;;6.08;56.51
59272;BME280;45043;51.068;7.026;2024-02-23T04:36:26;98171.09;;;6.21;56.60
59272;BME280;45043;51.068;7.026;2024-02-23T04:39:27;98174.94;;;6.25;56.42
59272;BME280;45043;51.068;7.026;2024-02-23T04:42:28;98169.50;;;6.33;56.38
59272;BME280;45043;51.068;7.026;2024-02-23T04:45:29;98170.94;;;6.42;56.57
59272;BME280;45043;51.068;7.026;2024-02-23T04:48:30;98168.31;;;6.42;56.47
59272;BME280;45043;51.068;7.026;2024-02-23T04:51:31;98172.34;;;6.51;56.27
59272;BME280;45043;51.068;7.026;2024-02-23T04:54:31;98172.56;;;6.50;56.41
59272;BME280;45043;51.068;7.026;2024-02-23T04:57:32;98160.25;;;6.50;56.31
59272;BME280;45043;51.068;7.026;2024-02-23T05:00:33;98170.53;;;6.52;56.63
59272;BME280;45043;51.068;7.026;2024-02-23T05:03:34;98179.81;;;6.55;56.21
59272;BME280;45043;51.068;7.026;2024-02-23T05:06:36;98171.75;;;6.69;56.29
59272;BME280;45043;51.068;7.026;2024-02-23T05:09:37;98166.91;;;6.73;56.07
59272;BME280;45043;51.068;7.026;2024-02-23T05:12:38;98170.94;;;6.69;55.93
59272;BME280;45043;51.068;7.026;2024-02-23T05:15:38;98178.59;;;6.64;55.83
59272;BME280;45043;51.068;7.026;2024-02-23T05:18:39;98171.34;;;6.66;55.62
59272;BME280;45043;51.068;7.026;2024-02-23T05:21:41;98171.13;;;6.67;55.69
59272;BME280;45043;51.068;7.026;2024-02-23T05:24:42;98156.63;;;6.71;55.54
59272;BME280;45043;51.068;7.026;2024-02-23T05:27:45;98168.09;;;6.64;56.29
59272;BME280;45043;51.068;7.026;2024-02-23T05:30:46;98171.50;;;7.11;56.54
59272;BME280;45043;51.068;7.026;2024-02-23T05:33:47;98172.47;;;7.36;56.64
59272;BME280;45043;51.068;7.026;2024-02-23T05:36:47;98165.72;;;7.67;55.89
59272;BME280;45043;51.068;7.026;2024-02-23T05:39:48;98161.44;;;7.79;56.27
59272;BME280;45043;51.068;7.026;2024-02-23T05:42:49;98166.53;;;8.12;55.96
59272;BME280;45043;51.068;7.026;2024-02-23T05:45:50;98170.56;;;8.47;55.29
59272;BME280;45043;51.068;7.026;2024-02-23T05:48:51;98155.31;;;8.55;54.72
59272;BME280;45043;51.068;7.026;2024-02-23T05:51:52;98151.88;;;8.55;54.40
59272;BME280;45043;51.068;7.026;2024-02-23T05:54:53;98156.38;;;8.48;54.17
59272;BME280;45043;51.068;7.026;2024-02-23T05:57:57;98162.25;;;8.50;55.32
59272;BME280;45043;51.068;7.026;2024-02-23T06:00:57;98171.25;;;8.85;55.37
59272;BME280;45043;51.068;7.026;2024-02-23T06:03:58;98168.56;;;8.92;54.68
59272;BME280;45043;51.068;7.026;2024-02-23T06:06:59;98160.56;;;8.55;54.04
59272;BME280;45043;51.068;7.026;2024-02-23T06:09:59;98166.63;;;8.56;54.00
59272;BME280;45043;51.068;7.026;2024-02-23T06:12:59;98167.50;;;8.50;53.53
59272;BME280;45043;51.068;7.026;2024-02-23T06:16:00;98166.75;;;8.42;53.25
59272;BME280;45043;51.068;7.026;2024-02-23T06:19:01;98161.06;;;8.45;53.50
59272;BME280;45043;51.068;7.026;2024-02-23T06:22:03;98143.47;;;8.46;53.31
59272;BME280;45043;51.068;7.026;2024-02-23T06:25:04;98152.03;;;8.60;53.64
59272;BME280;45043;51.068;7.026;2024-02-23T06:28:05;98142.53;;;8.59;53.31
59272;BME280;45043;51.068;7.026;2024-02-23T06:31:07;98150.00;;;8.62;53.35
59272;BME280;45043;51.068;7.026;2024-02-23T06:34:08;98140.34;;;8.56;52.84
59272;BME280;45043;51.068;7.026;2024-02-23T06:37:09;98140.13;;;8.32;52.66
59272;BME280;45043;51.068;7.026;2024-02-23T06:40:10;98149.75;;;8.13;52.40
59272;BME280;45043;51.068;7.026;2024-02-23T06:43:11;98154.88;;;8.02;52.60
59272;BME280;45043;51.068;7.026;2024-02-23T06:46:12;98171.59;;;8.07;52.68
59272;BME280;45043;51.068;7.026;2024-02-23T06:49:13;98160.53;;;7.99;52.73
59272;BME280;45043;51.068;7.026;2024-02-23T06:52:14;98161.59;;;8.23;52.83
59272;BME280;45043;51.068;7.026;2024-02-23T06:55:15;98155.44;;;8.42;52.67
59272;BME280;45043;51.068;7.026;2024-02-23T06:58:18;98154.28;;;8.31;52.53
59272;BME280;45043;51.068;7.026;2024-02-23T07:01:20;98151.78;;;8.43;52.22
59272;BME280;45043;51.068;7.026;2024-02-23T07:04:21;98148.53;;;8.41;52.50
59272;BME280;45043;51.068;7.026;2024-02-23T07:07:21;98150.03;;;8.30;52.85
59272;BME280;45043;51.068;7.026;2024-02-23T07:10:21;98143.25;;;8.48;52.26
59272;BME280;45043;51.068;7.026;2024-02-23T07:13:23;98147.28;;;8.50;52.67
59272;BME280;45043;51.068;7.026;2024-02-23T07:16:23;98151.81;;;8.36;52.70
59272;BME280;45043;51.068;7.026;2024-02-23T07:19:24;98135.63;;;8.08;52.18
59272;BME280;45043;51.068;7.026;2024-02-23T07:22:25;98155.16;;;7.87;52.09
59272;BME280;45043;51.068;7.026;2024-02-23T07:25:26;98156.69;;;7.56;52.50
59272;BME280;45043;51.068;7.026;2024-02-23T07:28:26;98148.66;;;7.38;52.98
59272;BME280;45043;51.068;7.026;2024-02-23T07:31:27;98162.78;;;7.30;52.89
59272;BME280;45043;51.068;7.026;2024-02-23T07:34:29;98147.66;;;7.32;53.57
59272;BME280;45043;51.068;7.026;2024-02-23T07:37:30;98152.75;;;7.14;53.23
59272;BME280;45043;51.068;7.026;2024-02-23T07:40:31;98145.31;;;6.97;53.47
59272;BME280;45043;51.068;7.026;2024-02-23T07:43:32;98138.47;;;6.83;54.35
59272;BME280;45043;51.068;7.026;2024-02-23T07:46:33;98132.59;;;6.81;54.30
59272;BME280;45043;51.068;7.026;2024-02-23T07:49:33;98139.25;;;6.97;54.06
59272;BME280;45043;51.068;7.026;2024-02-23T07:52:34;98155.38;;;7.07;54.27
59272;BME280;45043;51.068;7.026;2024-02-23T07:55:34;98147.72;;;7.06;54.29
59272;BME280;45043;51.068;7.026;2024-02-23T07:58:35;98144.69;;;7.09;54.55
59272;BME280;45043;51.068;7.026;2024-02-23T08:01:36;98159.81;;;7.20;54.19
59272;BME280;45043;51.068;7.026;2024-02-23T08:04:37;98146.63;;;7.33;54.13
59272;BME280;45043;51.068;7.026;2024-02-23T08:07:39;98155.13;;;7.35;54.01
59272;BME280;45043;51.068;7.026;2024-02-23T08:10:39;98152.91;;;7.45;54.25
59272;BME280;45043;51.068;7.026;2024-02-23T08:13:40;98161.09;;;7.62;53.72
59272;BME280;45043;51.068;7.026;2024-02-23T08:16:41;98157.25;;;8.10;54.00
59272;BME280;45043;51.068;7.026;2024-02-23T08:19:42;98158.19;;;8.54;53.93
59272;BME280;45043;51.068;7.026;2024-02-23T08:22:42;98149.22;;;9.05;53.26
59272;BME280;45043;51.068;7.026;2024-02-23T08:25:43;98163.22;;;9.24;52.69
59272;BME280;45043;51.068;7.026;2024-02-23T08:28:45;98170.78;;;9.38;52.43
59272;BME280;45043;51.068;7.026;2024-02-23T08:31:46;98161.56;;;9.48;51.37
59272;BME280;45043;51.068;7.026;2024-02-23T08:34:46;98163.47;;;9.40;50.83
59272;BME280;45043;51.068;7.026;2024-02-23T08:37:47;98167.47;;;9.25;50.45
59272;BME280;45043;51.068;7.026;2024-02-23T08:40:48;98166.56;;;9.12;50.03
59272;BME280;45043;51.068;7.026;2024-02-23T08:43:49;98157.00;;;9.18;50.19
59272;BME280;45043;51.068;7.026;2024-02-23T08:46:50;98169.47;;;9.29;49.80
59272;BME280;45043;51.068;7.026;2024-02-23T08:49:51;98169.41;;;9.36;49.47
59272;BME280;45043;51.068;7.026;2024-02-23T08:52:51;98175.03;;;9.39;49.15
59272;BME280;45043;51.068;7.026;2024-02-23T08:55:52;98183.06;;;9.26;48.97
59272;BME280;45043;51.068;7.026;2024-02-23T08:58:53;98166.94;;;9.16;49.07
59272;BME280;45043;51.068;7.026;2024-02-23T09:01:53;98166.31;;;8.96;48.93
59272;BME280;45043;51.068;7.026;2024-02-23T09:04:54;98186.72;;;9.00;49.08
59272;BME280;45043;51.068;7.026;2024-02-23T09:07:54;98184.44;;;9.04;48.98
59272;BME280;45043;51.068;7.026;2024-02-23T09:10:56;98191.31;;;9.05;49.05
59272;BME280;45043;51.068;7.026;2024-02-23T09:13:57;98192.28;;;9.10;48.94
59272;BME280;45043;51.068;7.026;2024-02-23T09:16:57;98198.31;;;9.17;48.94
59272;BME280;45043;51.068;7.026;2024-02-23T09:19:58;98185.50;;;9.21;48.68
59272;BME280;45043;51.068;7.026;2024-02-23T09:22:59;98187.88;;;9.29;48.76
59272;BME280;45043;51.068;7.026;2024-02-23T09:26:00;98188.50;;;9.31;48.89
59272;BME280;45043;51.068;7.026;2024-02-23T09:29:01;98194.31;;;9.33;48.51
59272;BME280;45043;51.068;7.026;2024-02-23T09:32:02;98204.50;;;9.23;48.25
59272;BME280;45043;51.068;7.026;2024-02-23T09:35:02;98193.59;;;9.19;48.27
59272;BME280;45043;51.068;7.026;2024-02-23T09:38:04;98179.06;;;9.17;47.98
59272;BME280;45043;51.068;7.026;2024-02-23T09:41:13;98187.63;;;9.12;48.39
59272;BME280;45043;51.068;7.026;2024-02-23T09:44:18;98192.81;;;9.19;48.34
59272;BME280;45043;51.068;7.026;2024-02-23T09:47:22;98191.16;;;9.25;48.29
59272;BME280;45043;51.068;7.026;2024-02-23T09:50:23;98204.19;;;9.38;48.12
59272;BME280;45043;51.068;7.026;2024-02-23T09:53:25;98196.81;;;9.28;47.90
59272;BME280;45043;51.068;7.026;2024-02-23T09:56:27;98199.50;;;8.97;47.78
59272;BME280;45043;51.068;7.026;2024-02-23T09:59:28;98177.50;;;8.66;47.44
59272;BME280;45043;51.068;7.026;2024-02-23T10:02:32;98184.09;;;8.50;47.77
59272;BME280;45043;51.068;7.026;2024-02-23T10:05:32;98197.91;;;8.39;47.75
59272;BME280;45043;51.068;7.026;2024-02-23T10:08:33;98174.97;;;8.21;47.88
59272;BME280;45043;51.068;7.026;2024-02-23T10:11:33;98191.13;;;8.25;47.74
59272;BME280;45043;51.068;7.026;2024-02-23T10:14:34;98196.78;;;8.21;47.91
59272;BME280;45043;51.068;7.026;2024-02-23T10:17:35;98191.91;;;8.25;48.12
59272;BME280;45043;51.068;7.026;2024-02-23T10:20:35;98196.53;;;8.30;48.13
59272;BME280;45043;51.068;7.026;2024-02-23T10:23:37;98197.00;;;8.20;48.32
59272;BME280;45043;51.068;7.026;2024-02-23T10:26:38;98202.66;;;8.24;48.46
59272;BME280;45043;51.068;7.026;2024-02-23T10:29:40;98196.75;;;8.28;48.26
59272;BME280;45043;51.068;7.026;2024-02-23T10:32:41;98210.06;;;8.33;47.99
59272;BME280;45043;51.068;7.026;2024-02-23T10:35:44;98211.84;;;8.39;47.86
59272;BME280;45043;51.068;7.026;2024-02-23T10:38:47;98214.22;;;8.48;47.87
59272;BME280;45043;51.068;7.026;2024-02-23T10:41:57;98226.53;;;8.54;47.72
59272;BME280;45043;51.068;7.026;2024-02-23T10:45:01;98228.53;;;8.58;47.26
59272;BME280;45043;51.068;7.026;2024-02-23T10:48:02;98225.34;;;8.50;47.68
59272;BME280;45043;51.068;7.026;2024-02-23T10:51:05;98230.16;;;8.53;47.96
59272;BME280;45043;51.068;7.026;2024-02-23T10:54:15;98225.78;;;8.47;48.02
59272;BME280;45043;51.068;7.026;2024-02-23T10:57:24;98215.75;;;8.30;48.14
59272;BME280;45043;51.068;7.026;2024-02-23T11:00:25;98232.38;;;8.24;48.96
59272;BME280;45043;51.068;7.026;2024-02-23T11:03:31;98222.84;;;8.23;49.00
59272;BME280;45043;51.068;7.026;2024-02-23T11:06:34;98226.47;;;8.29;49.16
59272;BME280;45043;51.068;7.026;2024-02-23T11:09:35;98221.38;;;8.34;49.36
59272;BME280;45043;51.068;7.026;2024-02-23T11:12:36;98222.25;;;8.28;49.11
59272;BME280;45043;51.068;7.026;2024-02-23T11:15:41;98241.44;;;8.28;49.28
59272;BME280;45043;51.068;7.026;2024-02-23T11:18:43;98215.81;;;8.17;49.26
59272;BME280;45043;51.068;7.026;2024-02-23T11:21:52;98230.00;;;8.16;49.56
59272;BME280;45043;51.068;7.026;2024-02-23T11:25:00;98212.19;;;8.18;49.12
59272;BME280;45043;51.068;7.026;2024-02-23T11:28:01;98212.19;;;8.18;49.20
59272;BME280;45043;51.068;7.026;2024-02-23T11:31:11;98228.78;;;8.12;49.57
59272;BME280;45043;51.068;7.026;2024-02-23T11:34:12;98226.97;;;8.12;49.65
59272;BME280;45043;51.068;7.026;2024-02-23T11:37:13;98223.09;;;8.15;49.53
59272;BME280;45043;51.068;7.026;2024-02-23T11:40:17;98203.72;;;8.16;49.30
59272;BME280;45043;51.068;7.026;2024-02-23T11:43:19;98213.75;;;8.26;49.10
59272;BME280;45043;51.068;7.026;2024-02-23T11:46:22;98199.19;;;8.23;49.20
59272;BME280;45043;51.068;7.026;2024-02-23T11:49:29;98193.09;;;8.29;49.26
59272;BME280;45043;51.068;7.026;2024-02-23T11:52:31;98209.22;;;8.39;49.21
59272;BME280;45043;51.068;7.026;2024-02-23T11:55:32;98199.06;;;8.50;48.81
59272;BME280;45043;51.068;7.026;2024-02-23T11:58:33;98196.59;;;8.55;48.73
59272;BME280;45043;51.068;7.026;2024-02-23T12:01:35;98196.59;;;8.55;48.56
59272;BME280;45043;51.068;7.026;2024-02-23T12:04:35;98189.53;;;8.49;48.38
59272;BME280;45043;51.068;7.026;2024-02-23T12:07:36;98193.81;;;8.50;48.26
59272;BME280;45043;51.068;7.026;2024-02-23T12:10:37;98193.34;;;8.53;48.14
59272;BME280;45043;51.068;7.026;2024-02-23T12:13:38;98199.00;;;8.56;47.90
59272;BME280;45043;51.068;7.026;2024-02-23T12:16:40;98203.25;;;8.57;47.64
59272;BME280;45043;51.068;7.026;2024-02-23T12:19:41;98214.94;;;8.61;47.07
59272;BME280;45043;51.068;7.026;2024-02-23T12:22:42;98186.41;;;8.65;47.47
59272;BME280;45043;51.068;7.026;2024-02-23T12:26:01;98202.34;;;8.70;47.53
59272;BME280;45043;51.068;7.026;2024-02-23T12:29:05;98204.53;;;8.73;47.46
59272;BME280;45043;51.068;7.026;2024-02-23T12:32:06;98197.19;;;8.82;47.51
59272;BME280;45043;51.068;7.026;2024-02-23T12:35:10;98195.06;;;8.72;47.32
59272;BME280;45043;51.068;7.026;2024-02-23T12:38:12;98203.41;;;8.62;47.18
59272;BME280;45043;51.068;7.026;2024-02-23T12:41:12;98199.63;;;8.52;47.43
59272;BME280;45043;51.068;7.026;2024-02-23T12:44:13;98197.00;;;8.52;47.73
59272;BME280;45043;51.068;7.026;2024-02-23T12:47:13;98203.41;;;8.62;47.76
59272;BME280;45043;51.068;7.026;2024-02-23T12:50:15;98207.97;;;8.74;47.80
59272;BME280;45043;51.068;7.026;2024-02-23T12:53:34;98198.88;;;8.76;47.99
59272;BME280;45043;51.068;7.026;2024-02-23T12:56:36;98205.69;;;8.84;47.75
59272;BME280;45043;51.068;7.026;2024-02-23T12:59:37;98204.19;;;8.94;48.03
59272;BME280;45043;51.068;7.026;2024-02-23T13:02:38;98209.91;;;9.10;47.80
59272;BME280;45043;51.068;7.026;2024-02-23T13:05:39;98206.44;;;9.16;47.56
59272;BME280;45043;51.068;7.026;2024-02-23T13:08:40;98198.88;;;9.19;47.32
59272;BME280;45043;51.068;7.026;2024-02-23T13:11:43;98196.91;;;9.15;47.36
59272;BME280;45043;51.068;7.026;2024-02-23T13:14:43;98191.81;;;9.20;47.21
59272;BME280;45043;51.068;7.026;2024-02-23T13:17:43;98193.78;;;9.25;47.10
59272;BME280;45043;51.068;7.026;2024-02-23T13:20:45;98193.66;;;9.38;47.02
59272;BME280;45043;51.068;7.026;2024-02-23T13:23:46;98190.97;;;9.45;47.09
59272;BME280;45043;51.068;7.026;2024-02-23T13:26:47;98179.50;;;9.57;46.68
59272;BME280;45043;51.068;7.026;2024-02-23T13:29:47;98176.69;;;9.52;45.88
59272;BME280;45043;51.068;7.026;2024-02-23T13:32:48;98178.03;;;9.43;45.33
59272;BME280;45043;51.068;7.026;2024-02-23T13:35:48;98189.06;;;9.33;44.74
59272;BME280;45043;51.068;7.026;2024-02-23T13:38:49;98179.78;;;9.31;45.45
59272;BME280;45043;51.068;7.026;2024-02-23T13:41:52;98193.97;;;9.30;46.21
59272;BME280;45043;51.068;7.026;2024-02-23T13:44:52;98185.69;;;9.45;46.37
59272;BME280;45043;51.068;7.026;2024-02-23T13:48:01;98183.50;;;9.60;45.99
59272;BME280;45043;51.068;7.026;2024-02-23T13:51:03;98194.50;;;9.57;45.98
59272;BME280;45043;51.068;7.026;2024-02-23T13:54:05;98181.91;;;9.59;45.68
59272;BME280;45043;51.068;7.026;2024-02-23T13:57:06;98188.50;;;9.50;45.58
59272;BME280;45043;51.068;7.026;2024-02-23T14:00:07;98178.59;;;9.63;45.60
59272;BME280;45043;51.068;7.026;2024-02-23T14:03:17;98196.25;;;9.63;45.09
59272;BME280;45043;51.068;7.026;2024-02-23T14:06:21;98197.34;;;9.55;44.96
59272;BME280;45043;51.068;7.026;2024-02-23T14:09:23;98182.63;;;9.66;44.56
59272;BME280;45043;51.068;7.026;2024-02-23T14:12:24;98184.44;;;9.84;44.21
59272;BME280;45043;51.068;7.026;2024-02-23T14:15:25;98194.69;;;9.74;44.10
59272;BME280;45043;51.068;7.026;2024-02-23T14:18:27;98200.34;;;9.59;44.35
59272;BME280;45043;51.068;7.026;2024-02-23T14:21:28;98188.34;;;9.45;44.58
59272;BME280;45043;51.068;7.026;2024-02-23T14:24:29;98195.06;;;9.40;44.72
59272;BME280;45043;51.068;7.026;2024-02-23T14:27:30;98190.22;;;9.37;45.08
59272;BME280;45043;51.068;7.026;2024-02-23T14:30:31;98196.53;;;9.36;45.90
59272;BME280;45043;51.068;7.026;2024-02-23T14:33:32;98181.59;;;9.49;46.08
59272;BME280;45043;51.068;7.026;2024-02-23T14:36:33;98185.78;;;9.56;46.42
59272;BME280;45043;51.068;7.026;2024-02-23T14:39:35;98186.66;;;9.50;46.52
59272;BME280;45043;51.068;7.026;2024-02-23T14:42:36;98195.81;;;9.48;46.58
59272;BME280;45043;51.068;7.026;2024-02-23T14:45:36;98197.13;;;9.38;46.36
59272;BME280;45043;51.068;7.026;2024-02-23T14:48:37;98178.75;;;9.32;46.50
59272;BME280;45043;51.068;7.026;2024-02-23T14:51:37;98193.28;;;9.34;46.00
59272;BME280;45043;51.068;7.026;2024-02-23T14:54:39;98194.94;;;9.35;45.82
59272;BME280;45043;51.068;7.026;2024-02-23T14:57:39;98179.50;;;9.39;46.18
59272;BME280;45043;51.068;7.026;2024-02-23T15:00:41;98182.94;;;9.39;46.52
59272;BME280;45043;51.068;7.026;2024-02-23T15:03:42;98185.63;;;9.33;46.95
59272;BME280;45043;51.068;7.026;2024-02-23T15:06:42;98185.84;;;9.31;46.17
59272;BME280;45043;51.068;7.026;2024-02-23T15:09:43;98191.13;;;9.31;46.97
59272;BME280;45043;51.068;7.026;2024-02-23T15:12:43;98189.34;;;9.25;46.88
59272;BME280;45043;51.068;7.026;2024-02-23T15:15:46;98201.31;;;9.21;46.74
59272;BME280;45043;51.068;7.026;2024-02-23T15:18:46;98218.13;;;9.20;46.89
59272;BME280;45043;51.068;7.026;2024-02-23T15:21:46;98194.88;;;9.17;46.95
59272;BME280;45043;51.068;7.026;2024-02-23T15:24:48;98201.75;;;9.18;46.73
59272;BME280;45043;51.068;7.026;2024-02-23T15:27:53;98192.97;;;9.24;47.16
59272;BME280;45043;51.068;7.026;2024-02-23T15:30:57;98191.69;;;9.33;47.11
59272;BME280;45043;51.068;7.026;2024-02-23T15:33:58;98180.72;;;9.36;47.34
59272;BME280;45043;51.068;7.026;2024-02-23T15:37:00;98195.75;;;9.54;46.89
59272;BME280;45043;51.068;7.026;2024-02-23T15:40:01;98189.78;;;9.77;46.91
59272;BME280;45043;51.068;7.026;2024-02-23T15:43:04;98196.81;;;10.02;46.38
59272;BME280;45043;51.068;7.026;2024-02-23T15:46:05;98197.69;;;10.26;46.31
59272;BME280;45043;51.068;7.026;2024-02-23T15:49:05;98199.38;;;11.16;44.73
59272;BME280;45043;51.068;7.026;2024-02-23T15:52:06;98200.03;;;12.39;42.85
59272;BME280;45043;51.068;7.026;2024-02-23T15:55:07;98183.81;;;14.24;40.01
59272;BME280;45043;51.068;7.026;2024-02-23T15:58:12;98194.41;;;16.31;36.27
59272;BME280;45043;51.068;7.026;2024-02-23T16:01:16;98199.28;;;16.85;35.08
59272;BME280;45043;51.068;7.026;2024-02-23T16:04:17;98200.34;;;15.28;37.04
59272;BME280;45043;51.068;7.026;2024-02-23T16:07:18;98207.25;;;13.61;39.74
59272;BME280;45043;51.068;7.026;2024-02-23T16:10:18;98204.16;;;12.63;41.45
59272;BME280;45043;51.068;7.026;2024-02-23T16:13:20;98209.66;;;12.04;42.21